createdAt,value
2022-10-22T00:03:55.161Z,12.36
2022-10-22T00:08:57.999Z,13.00
2022-10-22T00:14:00.590Z,13.42
2022-10-22T00:19:03.313Z,13.77
2022-10-22T00:24:05.829Z,13.30
2022-10-22T00:29:08.454Z,11.80
2022-10-22T00:34:11.017Z,11.03
2022-10-22T00:39:18.705Z,11.96
2022-10-22T00:44:58.721Z,12.79
2022-10-22T00:55:06.950Z,13.43
2022-10-22T01:00:10.183Z,13.64
2022-10-22T01:05:12.789Z,13.85
2022-10-22T01:10:34.594Z,13.05
2022-10-22T01:15:43.545Z,11.64
2022-10-22T01:20:58.232Z,10.83
2022-10-22T01:26:10.446Z,10.91
2022-10-22T01:31:15.828Z,12.13
2022-10-22T01:36:19.293Z,12.79
2022-10-22T01:41:21.743Z,13.21
2022-10-22T01:46:27.399Z,13.55
2022-10-22T01:51:39.590Z,13.88
2022-10-22T01:57:07.340Z,14.10
2022-10-22T02:02:28.477Z,14.22
2022-10-22T02:07:37.160Z,13.59
2022-10-22T02:12:43.071Z,11.99
2022-10-22T02:17:47.202Z,11.57
2022-10-22T02:22:49.994Z,12.56
2022-10-22T02:28:06.054Z,13.14
2022-10-22T02:33:17.790Z,13.48
2022-10-22T02:38:21.758Z,13.68
2022-10-22T02:43:24.874Z,13.78
2022-10-22T02:48:27.904Z,13.88
2022-10-22T02:53:30.379Z,14.04
2022-10-22T02:58:32.833Z,14.18
2022-10-22T03:03:35.241Z,14.31
2022-10-22T03:08:37.708Z,14.41
2022-10-22T03:13:40.154Z,13.97
2022-10-22T03:18:42.574Z,12.43
2022-10-22T03:23:45.005Z,11.33
2022-10-22T03:28:48.643Z,11.23
2022-10-22T03:33:51.920Z,12.36
2022-10-22T03:38:54.878Z,13.03
2022-10-22T03:43:57.800Z,13.43
2022-10-22T03:49:00.221Z,13.69
2022-10-22T03:54:03.745Z,13.88
2022-10-22T03:59:06.189Z,14.02
2022-10-22T04:04:08.588Z,14.17
2022-10-22T04:09:11.032Z,14.30
2022-10-22T04:14:13.615Z,14.41
2022-10-22T04:19:16.576Z,14.47
2022-10-22T04:24:19.006Z,14.53
2022-10-22T04:29:22.299Z,14.54
2022-10-22T04:34:28.646Z,14.55
2022-10-22T04:39:31.196Z,14.52
2022-10-22T04:44:33.652Z,14.55
2022-10-22T04:49:36.213Z,14.59
2022-10-22T04:54:38.640Z,14.67
2022-10-22T04:59:41.149Z,14.76
2022-10-22T05:04:44.357Z,14.81
2022-10-22T05:09:46.817Z,14.73
2022-10-22T05:14:49.253Z,14.68
2022-10-22T05:19:51.699Z,14.62
2022-10-22T05:24:54.066Z,14.64
2022-10-22T05:29:56.767Z,14.68
2022-10-22T05:34:59.546Z,14.71
2022-10-22T05:40:12.749Z,14.78
2022-10-22T05:45:24.938Z,14.88
2022-10-22T05:50:27.420Z,14.90
2022-10-22T05:55:29.945Z,14.89
2022-10-22T06:00:34.299Z,15.00
2022-10-22T06:05:37.751Z,15.08
2022-10-22T06:10:43.574Z,15.04
2022-10-22T06:15:45.983Z,15.01
2022-10-22T06:20:48.435Z,15.06
2022-10-22T06:25:58.802Z,15.12
2022-10-22T06:31:03.041Z,15.19
2022-10-22T06:36:14.980Z,15.30
2022-10-22T06:41:17.710Z,15.40
2022-10-22T06:46:21.591Z,15.51
2022-10-22T06:51:25.108Z,15.68
2022-10-22T06:56:29.389Z,15.82
2022-10-22T07:01:34.127Z,15.57
2022-10-22T07:06:37.008Z,14.17
2022-10-22T07:11:44.907Z,13.73
2022-10-22T07:16:47.599Z,14.69
2022-10-22T07:21:50.240Z,15.27
2022-10-22T07:26:52.880Z,15.60
2022-10-22T07:31:55.798Z,15.71
2022-10-22T07:36:58.255Z,15.74
2022-10-22T07:42:00.720Z,15.86
2022-10-22T07:47:03.329Z,15.98
2022-10-22T07:52:08.059Z,16.02
2022-10-22T07:57:10.473Z,16.06
2022-10-22T08:02:13.231Z,16.07
2022-10-22T08:07:16.158Z,16.04
2022-10-22T08:12:18.774Z,16.09
2022-10-22T08:17:21.210Z,16.27
2022-10-22T08:22:24.024Z,16.37
2022-10-22T08:27:26.616Z,16.35
2022-10-22T08:32:29.794Z,16.38
2022-10-22T08:37:32.754Z,16.29
2022-10-22T08:42:46.947Z,16.23
2022-10-22T08:48:11.880Z,16.25
2022-10-22T08:53:19.066Z,16.19
2022-10-22T08:58:43.573Z,16.16
2022-10-22T09:03:57.330Z,16.05
2022-10-22T09:09:01.229Z,16.01
2022-10-22T09:14:04.982Z,16.07
2022-10-22T09:19:35.845Z,16.17
2022-10-22T09:24:47.467Z,16.50
2022-10-22T09:29:50.129Z,16.81
2022-10-22T09:34:57.198Z,16.86
2022-10-22T09:40:05.258Z,16.84
2022-10-22T09:45:20.054Z,16.77
2022-10-22T09:50:41.278Z,16.83
2022-10-22T09:55:44.713Z,16.91
2022-10-22T10:00:53.350Z,17.09
2022-10-22T10:06:01.585Z,17.28
2022-10-22T10:11:29.058Z,17.37
2022-10-22T10:16:59.238Z,17.45
2022-10-22T10:22:16.713Z,17.50
2022-10-22T10:27:43.012Z,17.50
2022-10-22T10:33:09.473Z,17.58
2022-10-22T10:38:36.885Z,17.60
2022-10-22T10:43:48.298Z,17.71
2022-10-22T10:49:01.038Z,17.67
2022-10-22T10:54:22.417Z,17.54
2022-10-22T10:59:49.806Z,17.54
2022-10-22T11:05:19.898Z,17.54
2022-10-22T11:11:00.817Z,17.58
2022-10-22T11:16:40.868Z,17.57
2022-10-22T11:21:50.841Z,17.66
2022-10-22T11:27:15.401Z,17.81
2022-10-22T11:32:21.138Z,17.88
2022-10-22T11:37:30.464Z,17.75
2022-10-22T11:42:45.044Z,17.48
2022-10-22T11:47:53.662Z,17.27
2022-10-22T11:53:07.703Z,17.18
2022-10-22T11:58:28.596Z,17.26
2022-10-22T12:03:31.223Z,17.43
2022-10-22T12:08:34.216Z,17.37
2022-10-22T12:14:14.741Z,17.21
2022-10-22T12:19:23.113Z,17.17
2022-10-22T12:24:31.488Z,17.35
2022-10-22T12:29:34.079Z,17.54
2022-10-22T12:34:46.744Z,17.61
2022-10-22T12:39:49.198Z,17.70
2022-10-22T12:44:56.464Z,17.74
2022-10-22T12:49:58.892Z,17.65
2022-10-22T12:55:08.223Z,17.71
2022-10-22T13:00:32.937Z,17.67
2022-10-22T13:05:41.556Z,17.58
2022-10-22T13:10:54.125Z,17.65
2022-10-22T13:15:56.935Z,17.67
2022-10-22T13:21:03.143Z,17.61
2022-10-22T13:26:16.798Z,17.68
2022-10-22T13:31:23.418Z,17.78
2022-10-22T13:36:26.171Z,17.84
2022-10-22T13:41:32.126Z,17.87
2022-10-22T13:46:40.429Z,17.95
2022-10-22T13:51:43.858Z,17.92
2022-10-22T13:56:47.055Z,17.87
2022-10-22T14:01:49.562Z,17.93
2022-10-22T14:06:52.191Z,17.98
2022-10-22T14:11:54.878Z,18.03
2022-10-22T14:16:57.304Z,18.07
2022-10-22T14:22:00.297Z,18.14
2022-10-22T14:27:02.826Z,18.18
2022-10-22T14:32:14.366Z,18.17
2022-10-22T14:37:19.569Z,18.13
2022-10-22T14:42:22.026Z,18.20
2022-10-22T14:47:24.443Z,18.30
2022-10-22T14:52:26.868Z,18.41
2022-10-22T14:57:29.373Z,18.36
2022-10-22T15:02:31.816Z,18.42
2022-10-22T15:07:34.639Z,18.47
2022-10-22T15:12:37.556Z,18.48
2022-10-22T15:17:40.301Z,18.45
2022-10-22T15:22:43.543Z,18.38
2022-10-22T15:27:50.316Z,18.31
2022-10-22T15:32:54.317Z,18.28
2022-10-22T15:37:56.756Z,18.17
2022-10-22T15:42:59.174Z,18.09
2022-10-22T15:48:01.807Z,18.11
2022-10-22T15:53:04.354Z,18.04
2022-10-22T15:58:07.153Z,17.98
2022-10-22T16:03:09.607Z,17.93
2022-10-22T16:08:12.141Z,17.93
2022-10-22T16:13:15.845Z,17.94
2022-10-22T16:18:19.347Z,18.01
2022-10-22T16:23:22.804Z,18.05
2022-10-22T16:28:25.312Z,18.05
2022-10-22T16:33:27.856Z,18.07
2022-10-22T16:38:30.310Z,18.09
2022-10-22T16:43:32.769Z,18.05
2022-10-22T16:48:37.709Z,18.00
2022-10-22T16:53:40.441Z,17.92
2022-10-22T16:58:52.108Z,17.98
2022-10-22T17:03:55.121Z,18.00
2022-10-22T17:08:57.740Z,17.99
2022-10-22T17:14:02.496Z,17.98
2022-10-22T17:19:05.489Z,18.05
2022-10-22T17:24:08.073Z,18.12
2022-10-22T17:29:12.101Z,18.24
2022-10-22T17:34:16.675Z,18.34
2022-10-22T17:39:20.167Z,18.30
2022-10-22T17:44:22.646Z,18.32
2022-10-22T17:49:25.144Z,18.37
2022-10-22T17:54:27.578Z,18.39
2022-10-22T17:59:30.058Z,18.41
2022-10-22T18:04:33.956Z,18.44
2022-10-22T18:09:37.112Z,18.43
2022-10-22T18:14:40.486Z,18.52
2022-10-22T18:19:42.920Z,18.60
2022-10-22T18:24:45.364Z,18.63
2022-10-22T18:29:49.798Z,18.57
2022-10-22T18:34:52.219Z,18.57
2022-10-22T18:39:54.641Z,18.65
2022-10-22T18:44:57.143Z,18.75
2022-10-22T18:49:59.615Z,18.87
2022-10-22T18:55:02.139Z,18.98
2022-10-22T19:00:05.685Z,19.04
2022-10-22T19:05:09.075Z,19.12
2022-10-22T19:10:14.916Z,19.14
2022-10-22T19:15:17.784Z,19.15
2022-10-22T19:20:20.472Z,19.05
2022-10-22T19:25:24.099Z,19.07
2022-10-22T19:30:26.759Z,19.15
2022-10-22T19:35:29.575Z,19.11
2022-10-22T19:40:32.033Z,19.03
2022-10-22T19:45:35.796Z,19.12
2022-10-22T19:50:38.451Z,19.18
2022-10-22T19:55:45.138Z,19.17
2022-10-22T20:00:47.678Z,19.22
2022-10-22T20:05:51.213Z,19.31
2022-10-22T20:10:53.834Z,19.26
2022-10-22T20:15:56.982Z,19.16
2022-10-22T20:21:03.674Z,19.19
2022-10-22T20:26:06.251Z,19.21
2022-10-22T20:31:14.909Z,19.13
2022-10-22T20:36:20.540Z,19.11
2022-10-22T20:41:23.406Z,19.20
2022-10-22T20:46:29.428Z,19.30
2022-10-22T20:51:32.665Z,19.38
2022-10-22T20:56:39.967Z,19.38
2022-10-22T21:02:01.203Z,19.31
2022-10-22T21:07:04.275Z,19.18
2022-10-22T21:12:06.822Z,19.15
2022-10-22T21:17:09.396Z,19.18
2022-10-22T21:22:11.830Z,19.13
2022-10-22T21:27:14.358Z,18.97
2022-10-22T21:32:16.804Z,18.92
2022-10-22T21:37:19.780Z,18.99
2022-10-22T21:42:22.549Z,19.05
2022-10-22T21:47:25.086Z,19.13
2022-10-22T21:52:27.702Z,19.21
2022-10-22T21:57:30.132Z,19.25
2022-10-22T22:02:32.610Z,19.22
2022-10-22T22:07:35.059Z,19.24
2022-10-22T22:12:37.517Z,19.30
2022-10-22T22:17:40.011Z,19.30
2022-10-22T22:22:43.471Z,19.31
2022-10-22T22:27:46.142Z,19.32
2022-10-22T22:32:48.637Z,19.33
2022-10-22T22:37:51.866Z,19.38
2022-10-22T22:42:54.559Z,19.41
2022-10-22T22:47:57.126Z,19.39
2022-10-22T22:52:59.533Z,19.28
2022-10-22T22:58:01.950Z,19.25
2022-10-22T23:03:04.582Z,19.18
2022-10-22T23:08:06.992Z,19.11
2022-10-22T23:13:09.454Z,19.07
2022-10-22T23:18:11.828Z,19.09
2022-10-22T23:23:14.559Z,18.98
2022-10-22T23:28:17.015Z,18.93
2022-10-22T23:33:19.580Z,18.93
2022-10-22T23:38:22.298Z,19.01
2022-10-22T23:43:25.721Z,19.03
2022-10-22T23:48:28.402Z,19.07
2022-10-22T23:53:30.780Z,19.11
2022-10-22T23:58:34.977Z,19.17
